Time;durP1;ratioP1;P1;durP2;ratioP2;P2;SDS_P1;SDS_P2;PMS_P1;PMS_P2;Temp;Humidity;BMP_temperature;BMP_pressure;BME280_temperature;BME280_humidity;BME280_pressure;Samples;Min_cycle;Max_cycle;Signal;HPM_P1;HPM_P2
2023/08/02 00:02:15;;;;;;;9.38;3.10;;;;;;;;;;5111862;28;20093;-64
2023/08/02 00:04:41;;;;;;;5.10;3.08;;;;;;;;;;5111491;28;20038;-64
2023/08/02 00:07:07;;;;;;;20.52;3.10;;;;;;;;;;5111732;28;20386;-64
2023/08/02 00:09:33;;;;;;;7.35;2.55;;;;;;;;;;5111429;28;20044;-64
2023/08/02 00:11:59;;;;;;;8.32;2.75;;;;;;;;;;5111365;28;20135;-64
2023/08/02 00:14:25;;;;;;;7.97;2.90;;;;;;;;;;5111446;28;20052;-64
2023/08/02 00:16:51;;;;;;;6.80;2.78;;;;;;;;;;5111397;28;20035;-64
2023/08/02 00:19:17;;;;;;;17.70;3.75;;;;;;;;;;5111301;28;20036;-64
2023/08/02 00:21:44;;;;;;;8.30;3.20;;;;;;;;;;5111273;28;20142;-64
2023/08/02 00:24:10;;;;;;;10.02;3.10;;;;;;;;;;5110302;28;20074;-64
2023/08/02 00:26:36;;;;;;;8.38;3.03;;;;;;;;;;5110603;28;20059;-64
2023/08/02 00:29:02;;;;;;;4.80;2.70;;;;;;;;;;5111427;28;20086;-64
2023/08/02 00:31:28;;;;;;;10.57;3.60;;;;;;;;;;5144589;27;20070;-64
2023/08/02 00:33:54;;;;;;;5.63;3.03;;;;;;;;;;5110964;28;20043;-64
2023/08/02 00:36:20;;;;;;;9.88;3.15;;;;;;;;;;5111273;28;20039;-64
2023/08/02 00:38:46;;;;;;;9.88;2.88;;;;;;;;;;5111456;28;20048;-64
2023/08/02 00:41:12;;;;;;;10.77;3.40;;;;;;;;;;5111043;28;20036;-64
2023/08/02 00:43:39;;;;;;;9.68;3.67;;;;;;;;;;5111311;28;20432;-64
2023/08/02 00:46:05;;;;;;;11.90;3.55;;;;;;;;;;5111710;28;20036;-64
2023/08/02 00:48:33;;;;;;;6.38;3.67;;;;;;;;;;5144027;27;20107;-64
2023/08/02 00:50:59;;;;;;;8.00;3.60;;;;;;;;;;5111085;28;20043;-64
2023/08/02 00:53:25;;;;;;;6.65;3.10;;;;;;;;;;5110945;28;20035;-64
2023/08/02 00:55:51;;;;;;;8.10;3.20;;;;;;;;;;5110050;28;20042;-64
2023/08/02 00:58:16;;;;;;;18.83;3.92;;;;;;;;;;5110460;28;20039;-64
2023/08/02 01:00:42;;;;;;;8.35;3.53;;;;;;;;;;5110689;28;20036;-64
2023/08/02 01:03:08;;;;;;;11.95;4.03;;;;;;;;;;5110794;28;20237;-64
2023/08/02 01:05:35;;;;;;;6.95;3.13;;;;;;;;;;5110521;28;20044;-64
2023/08/02 01:08:03;;;;;;;9.50;3.53;;;;;;;;;;5110708;28;20036;-64
2023/08/02 01:10:33;;;;;;;10.00;4.10;;;;;;;;;;5092303;28;20044;-64
2023/08/02 01:13:00;;;;;;;8.48;3.50;;;;;;;;;;5109851;28;20431;-64
2023/08/02 01:15:27;;;;;;;8.20;3.67;;;;;;;;;;5110782;28;20491;-64
2023/08/02 01:17:54;;;;;;;9.15;3.50;;;;;;;;;;5110607;28;20040;-64
2023/08/02 01:20:20;;;;;;;10.70;3.55;;;;;;;;;;5110408;28;20118;-64
2023/08/02 01:22:46;;;;;;;10.90;3.55;;;;;;;;;;5110988;28;20079;-64
2023/08/02 01:25:12;;;;;;;10.52;4.18;;;;;;;;;;5110610;28;20124;-64
2023/08/02 01:27:41;;;;;;;12.02;4.20;;;;;;;;;;5110083;28;20043;-64
2023/08/02 01:30:10;;;;;;;9.52;3.50;;;;;;;;;;5110553;28;20451;-64
2023/08/02 01:32:36;;;;;;;10.77;4.45;;;;;;;;;;5110302;28;20469;-64
2023/08/02 01:35:02;;;;;;;11.80;4.05;;;;;;;;;;5143194;27;20164;-64
2023/08/02 01:37:28;;;;;;;6.68;3.55;;;;;;;;;;5110479;28;20027;-64
2023/08/02 01:39:54;;;;;;;12.07;3.70;;;;;;;;;;5110313;28;20040;-64
2023/08/02 01:42:20;;;;;;;14.23;4.45;;;;;;;;;;5108308;28;20051;-64
2023/08/02 01:44:46;;;;;;;10.90;4.10;;;;;;;;;;5109929;28;20047;-64
2023/08/02 01:47:12;;;;;;;13.30;3.95;;;;;;;;;;5108606;28;20097;-64
2023/08/02 01:49:38;;;;;;;15.68;4.20;;;;;;;;;;5109796;28;20393;-64
2023/08/02 01:52:04;;;;;;;10.57;3.92;;;;;;;;;;5143288;27;20085;-64
2023/08/02 01:54:30;;;;;;;10.73;4.00;;;;;;;;;;5110114;28;20086;-64
2023/08/02 01:56:56;;;;;;;12.32;4.30;;;;;;;;;;5109495;28;20040;-64
2023/08/02 01:59:22;;;;;;;11.35;4.20;;;;;;;;;;5109842;28;20039;-64
2023/08/02 02:01:48;;;;;;;12.13;4.07;;;;;;;;;;5109968;28;20032;-64
2023/08/02 02:04:14;;;;;;;19.98;4.90;;;;;;;;;;5109454;28;20508;-64
2023/08/02 02:06:40;;;;;;;10.32;3.70;;;;;;;;;;5109705;28;20040;-64
2023/08/02 02:09:06;;;;;;;10.20;3.72;;;;;;;;;;5109289;28;20526;-64
2023/08/02 02:11:32;;;;;;;9.00;3.75;;;;;;;;;;5109091;28;20047;-64
2023/08/02 02:13:58;;;;;;;13.93;4.82;;;;;;;;;;5109584;28;20477;-64
2023/08/02 02:16:24;;;;;;;13.75;4.35;;;;;;;;;;5109681;28;20110;-64
2023/08/02 02:18:50;;;;;;;14.25;4.82;;;;;;;;;;5109378;28;20164;-64
2023/08/02 02:21:16;;;;;;;12.52;5.45;;;;;;;;;;5110297;28;20071;-64
2023/08/02 02:23:42;;;;;;;15.30;4.38;;;;;;;;;;5109713;28;20043;-64
2023/08/02 02:26:08;;;;;;;17.80;5.05;;;;;;;;;;5108898;28;20040;-64
2023/08/02 02:28:34;;;;;;;15.55;5.47;;;;;;;;;;5142508;27;20474;-64
2023/08/02 02:31:00;;;;;;;15.80;4.65;;;;;;;;;;5109819;28;20043;-64
2023/08/02 02:33:26;;;;;;;13.77;5.00;;;;;;;;;;5109193;28;20040;-64
2023/08/02 02:35:52;;;;;;;16.17;5.38;;;;;;;;;;5109760;28;20112;-64
2023/08/02 02:38:18;;;;;;;15.70;4.53;;;;;;;;;;5109670;28;20047;-64
2023/08/02 02:40:44;;;;;;;15.63;5.35;;;;;;;;;;5109485;28;20036;-64
2023/08/02 02:43:10;;;;;;;14.80;5.05;;;;;;;;;;5109529;28;20054;-64
2023/08/02 02:45:36;;;;;;;15.05;4.78;;;;;;;;;;5109541;28;20417;-64
2023/08/02 02:48:02;;;;;;;18.20;5.65;;;;;;;;;;5109213;28;20050;-64
2023/08/02 02:50:29;;;;;;;16.83;5.75;;;;;;;;;;5109502;28;20096;-64
2023/08/02 02:52:55;;;;;;;17.65;5.82;;;;;;;;;;5109358;28;20044;-64
2023/08/02 02:55:21;;;;;;;16.85;6.18;;;;;;;;;;5109054;28;20107;-64
2023/08/02 02:57:46;;;;;;;16.83;5.78;;;;;;;;;;5109479;28;20043;-64
2023/08/02 03:00:13;;;;;;;16.60;5.78;;;;;;;;;;5109001;28;20078;-64
2023/08/02 03:02:38;;;;;;;23.08;6.65;;;;;;;;;;5108682;28;20039;-64
2023/08/02 03:05:05;;;;;;;13.45;5.10;;;;;;;;;;5109424;28;20040;-64
2023/08/02 03:07:31;;;;;;;17.02;5.68;;;;;;;;;;5109208;28;20046;-64
2023/08/02 03:09:57;;;;;;;22.60;6.05;;;;;;;;;;5108962;28;20247;-64
2023/08/02 03:12:23;;;;;;;19.55;5.75;;;;;;;;;;5108760;28;20052;-64
2023/08/02 03:14:49;;;;;;;19.75;6.03;;;;;;;;;;5109284;28;20131;-64
2023/08/02 03:17:15;;;;;;;18.80;6.85;;;;;;;;;;5108826;28;20123;-64
2023/08/02 03:19:41;;;;;;;16.77;5.38;;;;;;;;;;5110210;28;20393;-64
2023/08/02 03:22:07;;;;;;;20.73;6.00;;;;;;;;;;5113375;28;20041;-64
2023/08/02 03:24:33;;;;;;;17.17;5.43;;;;;;;;;;5112706;28;20583;-64
2023/08/02 03:26:59;;;;;;;17.67;5.45;;;;;;;;;;5112814;28;20126;-64
2023/08/02 03:29:25;;;;;;;13.45;5.50;;;;;;;;;;5112896;28;20040;-64
2023/08/02 03:31:51;;;;;;;16.75;5.45;;;;;;;;;;5112407;28;20066;-64
2023/08/02 03:34:17;;;;;;;12.20;5.50;;;;;;;;;;5112421;28;20103;-64
2023/08/02 03:36:43;;;;;;;28.88;6.43;;;;;;;;;;5112870;28;20067;-64
2023/08/02 03:39:10;;;;;;;18.50;5.60;;;;;;;;;;5112309;28;20043;-64
2023/08/02 03:41:36;;;;;;;12.82;5.53;;;;;;;;;;5112688;28;20453;-64
2023/08/02 03:44:02;;;;;;;15.63;6.32;;;;;;;;;;5112583;28;20052;-64
2023/08/02 03:46:28;;;;;;;18.65;6.38;;;;;;;;;;5112135;28;20426;-64
2023/08/02 03:48:54;;;;;;;13.10;5.70;;;;;;;;;;5112663;28;20055;-64
2023/08/02 03:51:20;;;;;;;10.60;6.15;;;;;;;;;;5112328;28;20039;-64
2023/08/02 03:53:46;;;;;;;13.80;6.00;;;;;;;;;;5112033;28;20055;-64
2023/08/02 03:56:12;;;;;;;11.73;5.55;;;;;;;;;;5112518;28;20054;-64
2023/08/02 03:58:38;;;;;;;15.73;6.00;;;;;;;;;;5112228;28;20397;-64
2023/08/02 04:01:04;;;;;;;11.95;5.85;;;;;;;;;;5112260;28;20032;-64
2023/08/02 04:03:30;;;;;;;20.65;5.75;;;;;;;;;;5112265;28;20379;-64
2023/08/02 04:05:56;;;;;;;10.77;5.75;;;;;;;;;;5112202;28;20043;-64
2023/08/02 04:08:22;;;;;;;12.40;5.90;;;;;;;;;;5111634;28;20084;-64
2023/08/02 04:10:48;;;;;;;12.75;6.32;;;;;;;;;;5112501;28;20032;-64
2023/08/02 04:13:14;;;;;;;16.33;5.97;;;;;;;;;;5111496;28;20058;-64
2023/08/02 04:15:40;;;;;;;11.98;5.80;;;;;;;;;;5110330;28;20050;-64
2023/08/02 04:18:06;;;;;;;15.27;6.32;;;;;;;;;;5111995;28;20040;-64
2023/08/02 04:20:32;;;;;;;21.50;6.38;;;;;;;;;;5111878;28;20042;-64
2023/08/02 04:22:58;;;;;;;12.50;5.93;;;;;;;;;;5111784;28;20087;-64
2023/08/02 04:25:24;;;;;;;14.45;5.72;;;;;;;;;;5111455;28;20031;-64
2023/08/02 04:27:50;;;;;;;19.98;6.47;;;;;;;;;;5112926;28;20040;-64
2023/08/02 04:30:16;;;;;;;10.63;5.93;;;;;;;;;;5113545;28;20044;-64
2023/08/02 04:32:42;;;;;;;16.73;6.93;;;;;;;;;;5112772;28;20126;-64
2023/08/02 04:35:08;;;;;;;17.00;6.07;;;;;;;;;;5113494;28;20070;-64
2023/08/02 04:37:35;;;;;;;17.40;6.03;;;;;;;;;;5146244;27;20454;-64
2023/08/02 04:40:01;;;;;;;12.07;5.97;;;;;;;;;;5112548;28;20035;-66
2023/08/02 04:42:27;;;;;;;13.00;6.68;;;;;;;;;;5113185;28;20043;-66
2023/08/02 04:44:53;;;;;;;14.15;6.00;;;;;;;;;;5113227;28;20040;-66
2023/08/02 04:47:20;;;;;;;13.68;6.03;;;;;;;;;;5112742;28;20470;-66
2023/08/02 04:49:46;;;;;;;12.93;5.72;;;;;;;;;;5113150;28;20092;-66
2023/08/02 04:52:12;;;;;;;15.50;6.30;;;;;;;;;;5112600;28;20040;-66
2023/08/02 04:54:38;;;;;;;12.90;6.43;;;;;;;;;;5112490;28;20039;-66
2023/08/02 04:57:04;;;;;;;10.98;5.88;;;;;;;;;;5113003;28;20043;-66
2023/08/02 04:59:30;;;;;;;13.00;6.00;;;;;;;;;;5113024;28;20039;-66
2023/08/02 05:01:56;;;;;;;14.88;6.05;;;;;;;;;;5112514;28;20039;-66
2023/08/02 05:04:22;;;;;;;15.07;5.88;;;;;;;;;;5113030;28;20060;-66
2023/08/02 05:06:48;;;;;;;14.18;6.10;;;;;;;;;;5112557;28;20043;-66
2023/08/02 05:09:14;;;;;;;13.77;6.30;;;;;;;;;;5092455;28;20044;-66
2023/08/02 05:11:41;;;;;;;16.60;5.68;;;;;;;;;;5092231;28;20138;-66
2023/08/02 05:14:07;;;;;;;14.27;5.30;;;;;;;;;;5092346;28;20043;-66
2023/08/02 05:16:33;;;;;;;13.95;6.25;;;;;;;;;;5091602;28;20551;-66
2023/08/02 05:18:59;;;;;;;13.90;6.13;;;;;;;;;;5092345;28;20040;-66
2023/08/02 05:21:25;;;;;;;11.60;6.63;;;;;;;;;;5092057;28;20044;-66
2023/08/02 05:23:51;;;;;;;15.07;6.60;;;;;;;;;;5091422;28;20051;-66
2023/08/02 05:26:17;;;;;;;16.00;6.53;;;;;;;;;;5103282;28;20537;-66
2023/08/02 05:28:43;;;;;;;16.25;5.90;;;;;;;;;;5145485;27;20054;-66
2023/08/02 05:31:10;;;;;;;14.30;6.63;;;;;;;;;;5111031;28;20039;-65
2023/08/02 05:33:36;;;;;;;15.63;6.78;;;;;;;;;;5125460;27;20489;-64
2023/08/02 05:36:03;;;;;;;10.95;6.10;;;;;;;;;;5131918;27;20091;-64
2023/08/02 05:38:30;;;;;;;15.75;6.40;;;;;;;;;;5132062;27;20058;-64
2023/08/02 05:41:00;;;;;;;15.10;6.45;;;;;;;;;;5123112;27;20051;-66
2023/08/02 05:43:26;;;;;;;13.50;6.38;;;;;;;;;;5111184;28;20050;-65
2023/08/02 05:45:52;;;;;;;10.13;5.72;;;;;;;;;;5109390;28;20047;-65
2023/08/02 05:48:18;;;;;;;12.10;6.30;;;;;;;;;;5113237;27;20365;-67
2023/08/02 05:50:44;;;;;;;15.63;6.72;;;;;;;;;;5116036;27;20043;-67
2023/08/02 05:53:10;;;;;;;9.95;6.20;;;;;;;;;;5110364;28;20559;-67
2023/08/02 05:55:37;;;;;;;13.10;6.45;;;;;;;;;;5111443;28;20047;-65
2023/08/02 05:58:03;;;;;;;14.45;5.95;;;;;;;;;;5128000;27;20039;-65
2023/08/02 06:00:29;;;;;;;14.13;6.15;;;;;;;;;;5131520;27;20047;-67
2023/08/02 06:02:55;;;;;;;13.38;6.30;;;;;;;;;;5130613;27;20122;-66
2023/08/02 06:05:21;;;;;;;11.05;6.03;;;;;;;;;;5131880;27;20507;-66
2023/08/02 06:07:47;;;;;;;12.05;6.13;;;;;;;;;;5124888;27;20056;-66
2023/08/02 06:10:13;;;;;;;13.23;5.63;;;;;;;;;;5128501;27;20063;-66
2023/08/02 06:12:39;;;;;;;11.95;5.40;;;;;;;;;;5130273;27;20170;-67
2023/08/02 06:15:05;;;;;;;9.23;5.28;;;;;;;;;;5131149;27;20115;-65
2023/08/02 06:17:31;;;;;;;12.73;5.57;;;;;;;;;;5131573;27;20046;-66
2023/08/02 06:19:58;;;;;;;10.90;6.05;;;;;;;;;;5131706;27;20039;-67
2023/08/02 06:22:24;;;;;;;12.85;5.43;;;;;;;;;;5130681;27;20043;-66
2023/08/02 06:24:50;;;;;;;12.48;6.05;;;;;;;;;;5131622;27;20040;-66
2023/08/02 06:27:16;;;;;;;11.25;4.85;;;;;;;;;;5111618;27;20088;-66
2023/08/02 06:29:42;;;;;;;14.00;5.43;;;;;;;;;;5123362;28;20393;-66
2023/08/02 06:32:08;;;;;;;10.73;5.45;;;;;;;;;;5130591;28;20043;-66
2023/08/02 06:34:34;;;;;;;13.63;5.90;;;;;;;;;;5131509;27;20431;-67
2023/08/02 06:37:00;;;;;;;12.52;5.32;;;;;;;;;;5123213;28;20039;-68
2023/08/02 06:39:26;;;;;;;14.73;5.70;;;;;;;;;;5111073;28;20122;-65
2023/08/02 06:41:52;;;;;;;12.82;5.63;;;;;;;;;;5124799;28;20130;-65
2023/08/02 06:44:18;;;;;;;13.38;5.55;;;;;;;;;;5131080;27;20163;-65
2023/08/02 06:46:44;;;;;;;8.98;4.57;;;;;;;;;;5131524;27;20047;-66
2023/08/02 06:49:10;;;;;;;9.30;5.05;;;;;;;;;;5131661;27;20050;-65
2023/08/02 06:51:36;;;;;;;13.40;5.18;;;;;;;;;;5132211;27;20039;-66
2023/08/02 06:54:02;;;;;;;10.43;4.72;;;;;;;;;;5131153;27;20047;-66
2023/08/02 06:56:28;;;;;;;9.05;5.03;;;;;;;;;;5135399;27;20456;-67
2023/08/02 06:58:54;;;;;;;15.00;5.30;;;;;;;;;;5135938;27;20123;-66
2023/08/02 07:01:21;;;;;;;16.25;4.53;;;;;;;;;;5135032;27;20042;-66
2023/08/02 07:03:48;;;;;;;14.90;5.28;;;;;;;;;;5135572;27;20046;-66
2023/08/02 07:06:15;;;;;;;10.80;4.70;;;;;;;;;;5134756;27;20461;-65
2023/08/02 07:08:41;;;;;;;9.50;3.85;;;;;;;;;;5123512;27;20054;-65
2023/08/02 07:11:07;;;;;;;12.32;4.72;;;;;;;;;;5135470;27;20382;-67
2023/08/02 07:13:34;;;;;;;11.13;4.80;;;;;;;;;;5134859;27;20070;-66
2023/08/02 07:16:00;;;;;;;13.27;4.70;;;;;;;;;;5136118;27;20031;-66
2023/08/02 07:18:26;;;;;;;8.20;4.15;;;;;;;;;;5135155;27;20397;-68
2023/08/02 07:20:52;;;;;;;10.38;4.30;;;;;;;;;;5134479;27;20035;-68
2023/08/02 07:23:18;;;;;;;11.52;4.28;;;;;;;;;;5133622;27;20542;-67
2023/08/02 07:25:44;;;;;;;9.10;4.13;;;;;;;;;;5127685;27;20176;-65
2023/08/02 07:28:10;;;;;;;8.48;4.18;;;;;;;;;;5113965;28;20058;-67
2023/08/02 07:30:36;;;;;;;10.63;4.75;;;;;;;;;;5132799;27;20039;-67
2023/08/02 07:33:02;;;;;;;7.32;4.05;;;;;;;;;;5134562;27;20118;-66
2023/08/02 07:35:28;;;;;;;12.85;4.57;;;;;;;;;;5134586;27;20043;-67
2023/08/02 07:37:54;;;;;;;11.27;4.75;;;;;;;;;;5134878;27;20050;-66
2023/08/02 07:40:20;;;;;;;9.32;4.28;;;;;;;;;;5134732;27;20267;-66
2023/08/02 07:42:46;;;;;;;10.27;5.45;;;;;;;;;;5134301;27;20481;-68
2023/08/02 07:45:13;;;;;;;12.52;5.45;;;;;;;;;;5133661;27;20039;-68
2023/08/02 07:47:39;;;;;;;9.70;5.22;;;;;;;;;;5135041;27;20043;-67
2023/08/02 07:50:06;;;;;;;13.23;4.88;;;;;;;;;;5132980;27;20485;-67
2023/08/02 07:52:32;;;;;;;14.60;4.95;;;;;;;;;;5133699;27;20377;-66
2023/08/02 07:54:58;;;;;;;12.13;4.65;;;;;;;;;;5132942;27;20039;-66
2023/08/02 07:57:26;;;;;;;10.20;4.80;;;;;;;;;;5134163;27;20043;-66
2023/08/02 07:59:52;;;;;;;13.27;4.85;;;;;;;;;;5133700;27;20404;-66
2023/08/02 08:02:19;;;;;;;14.38;4.55;;;;;;;;;;5134038;27;20404;-66
2023/08/02 08:04:45;;;;;;;11.55;4.63;;;;;;;;;;5134056;27;20043;-66
2023/08/02 08:07:11;;;;;;;8.18;4.32;;;;;;;;;;5131440;27;20039;-68
2023/08/02 08:09:37;;;;;;;9.20;4.53;;;;;;;;;;5122155;27;20598;-68
2023/08/02 08:12:04;;;;;;;11.00;4.90;;;;;;;;;;5133719;27;20051;-68
2023/08/02 08:14:31;;;;;;;12.93;4.80;;;;;;;;;;5115548;27;20105;-68
2023/08/02 08:16:58;;;;;;;12.65;5.10;;;;;;;;;;5116316;27;20427;-68
2023/08/02 08:19:25;;;;;;;12.20;4.68;;;;;;;;;;5133790;27;20405;-66
2023/08/02 08:21:51;;;;;;;11.32;5.13;;;;;;;;;;5133215;27;20050;-66
2023/08/02 08:24:17;;;;;;;10.07;4.93;;;;;;;;;;5133837;27;20557;-66
2023/08/02 08:26:43;;;;;;;11.13;4.60;;;;;;;;;;5116950;27;20039;-66
2023/08/02 08:29:09;;;;;;;10.18;4.40;;;;;;;;;;5116956;27;20234;-66
2023/08/02 08:31:36;;;;;;;13.30;4.93;;;;;;;;;;5133694;27;20668;-66
2023/08/02 08:34:02;;;;;;;8.27;4.10;;;;;;;;;;5133172;27;20168;-67
2023/08/02 08:36:31;;;;;;;12.20;4.90;;;;;;;;;;5132107;27;20120;-67
2023/08/02 08:38:57;;;;;;;13.88;4.35;;;;;;;;;;5133239;27;20046;-68
2023/08/02 08:41:23;;;;;;;9.52;4.43;;;;;;;;;;5133018;27;20171;-67
2023/08/02 08:43:49;;;;;;;12.07;4.53;;;;;;;;;;5131626;27;20039;-67
2023/08/02 08:46:16;;;;;;;11.70;5.05;;;;;;;;;;5133259;27;20156;-67
2023/08/02 08:48:42;;;;;;;13.18;5.32;;;;;;;;;;5133460;27;20043;-68
2023/08/02 08:51:10;;;;;;;7.15;4.30;;;;;;;;;;5132963;27;20035;-67
2023/08/02 08:53:36;;;;;;;11.02;5.40;;;;;;;;;;5132573;27;20042;-64
2023/08/02 08:56:04;;;;;;;9.80;4.65;;;;;;;;;;5133048;27;20042;-66
2023/08/02 08:58:30;;;;;;;10.18;4.60;;;;;;;;;;5132714;27;20058;-64
2023/08/02 09:00:58;;;;;;;11.10;4.90;;;;;;;;;;5133110;27;20106;-65
2023/08/02 09:03:24;;;;;;;10.57;5.00;;;;;;;;;;5133008;27;20453;-66
2023/08/02 09:05:51;;;;;;;9.48;4.72;;;;;;;;;;5132325;27;20078;-65
2023/08/02 09:08:17;;;;;;;13.45;5.53;;;;;;;;;;5122179;27;20114;-65
2023/08/02 09:10:43;;;;;;;9.40;5.20;;;;;;;;;;5128823;27;20491;-65
2023/08/02 09:13:25;;;;;;;10.30;5.40;;;;;;;;;;5131819;27;20055;-66
2023/08/02 09:15:51;;;;;;;;;;;;;;;;;;5133155;27;20057;-67
2023/08/02 09:18:17;;;;;;;11.77;5.75;;;;;;;;;;5131753;27;19919;-67
2023/08/02 09:20:52;;;;;;;11.95;6.15;;;;;;;;;;5132597;27;20039;-67
2023/08/02 09:23:18;;;;;;;13.25;5.80;;;;;;;;;;5091927;28;20040;-67
2023/08/02 09:25:44;;;;;;;10.07;5.95;;;;;;;;;;5100353;27;20054;-67
2023/08/02 09:28:11;;;;;;;11.48;5.85;;;;;;;;;;5111716;28;20047;-67
2023/08/02 09:30:40;;;;;;;10.57;5.90;;;;;;;;;;5126984;27;20039;-68
2023/08/02 09:33:06;;;;;;;15.85;6.20;;;;;;;;;;5132190;27;20039;-68
2023/08/02 09:35:51;;;;;;;13.93;6.60;;;;;;;;;;5132015;27;20125;-68
2023/08/02 09:38:18;;;;;;;8.73;6.30;;;;;;;;;;5119099;27;20067;-66
2023/08/02 09:40:48;;;;;;;10.23;6.00;;;;;;;;;;5111241;28;20038;-66
2023/08/02 09:43:18;;;;;;;9.48;5.90;;;;;;;;;;5130802;27;20538;-66
2023/08/02 09:45:44;;;;;;;10.13;6.13;;;;;;;;;;5132142;27;20382;-67
2023/08/02 09:48:10;;;;;;;8.70;5.97;;;;;;;;;;5132185;27;20046;-66
2023/08/02 09:50:52;;;;;;;10.15;6.10;;;;;;;;;;5131931;27;20119;-66
2023/08/02 09:53:18;;;;;;;13.50;5.72;;;;;;;;;;5131880;27;20051;-66
2023/08/02 09:55:46;;;;;;;9.40;5.53;;;;;;;;;;5132661;27;20043;-66
2023/08/02 09:58:13;;;;;;;9.70;5.35;;;;;;;;;;5132201;27;20526;-66
2023/08/02 10:00:40;;;;;;;13.00;5.82;;;;;;;;;;5132853;27;20054;-66
2023/08/02 10:03:07;;;;;;;7.95;5.28;;;;;;;;;;5132022;27;20043;-65
2023/08/02 10:05:33;;;;;;;5.93;4.97;;;;;;;;;;5126768;27;20126;-66
2023/08/02 10:07:59;;;;;;;6.22;4.90;;;;;;;;;;5111214;28;20439;-66
2023/08/02 10:10:26;;;;;;;6.45;5.03;;;;;;;;;;5123357;27;20118;-66
2023/08/02 10:12:56;;;;;;;6.00;4.90;;;;;;;;;;5131095;27;20047;-66
2023/08/02 10:15:23;;;;;;;7.00;4.50;;;;;;;;;;5133031;27;20047;-66
2023/08/02 10:17:49;;;;;;;6.30;4.30;;;;;;;;;;5132525;27;20723;-67
2023/08/02 10:20:17;;;;;;;7.10;3.75;;;;;;;;;;5132338;27;20099;-66
2023/08/02 10:22:47;;;;;;;6.43;3.72;;;;;;;;;;5118177;27;20055;-65
2023/08/02 10:25:16;;;;;;;5.43;3.30;;;;;;;;;;5112195;28;20055;-64
2023/08/02 10:27:43;;;;;;;3.80;3.28;;;;;;;;;;5112953;28;20047;-65
2023/08/02 10:30:11;;;;;;;5.03;3.20;;;;;;;;;;5124473;27;20043;-66
2023/08/02 10:32:37;;;;;;;3.13;2.65;;;;;;;;;;5136509;27;20042;-65
2023/08/02 10:35:03;;;;;;;4.32;2.45;;;;;;;;;;5135380;27;20042;-65
2023/08/02 10:37:48;;;;;;;4.15;3.00;;;;;;;;;;5135763;27;20039;-65
2023/08/02 10:40:14;;;;;;;3.58;2.40;;;;;;;;;;5135946;27;20039;-64
2023/08/02 10:43:00;;;;;;;2.97;2.50;;;;;;;;;;5135248;27;20058;-64
2023/08/02 10:45:26;;;;;;;3.08;2.28;;;;;;;;;;5135358;27;20050;-65
2023/08/02 10:48:03;;;;;;;2.78;2.38;;;;;;;;;;5135016;27;20046;-65
2023/08/02 10:50:43;;;;;;;3.95;2.40;;;;;;;;;;5136230;27;20046;-66
2023/08/02 10:53:10;;;;;;;3.42;2.30;;;;;;;;;;5136198;27;20047;-64
2023/08/02 10:55:36;;;;;;;5.55;2.72;;;;;;;;;;5113538;28;20035;-65
2023/08/02 10:58:05;;;;;;;4.05;2.22;;;;;;;;;;5115257;28;20047;-64
2023/08/02 11:00:32;;;;;;;4.72;2.50;;;;;;;;;;5114907;28;20035;-67
2023/08/02 11:02:59;;;;;;;3.88;2.25;;;;;;;;;;5114673;28;20048;-66
2023/08/02 11:05:42;;;;;;;4.38;2.63;;;;;;;;;;5114882;28;20093;-66
2023/08/02 11:08:08;;;;;;;3.67;1.77;;;;;;;;;;5113736;28;20092;-66
2023/08/02 11:10:54;;;;;;;4.22;1.83;;;;;;;;;;5114480;28;20078;-64
2023/08/02 11:13:21;;;;;;;1.85;1.65;;;;;;;;;;5115132;27;20119;-65
2023/08/02 11:15:48;;;;;;;2.33;1.98;;;;;;;;;;5135195;27;20424;-65
2023/08/02 11:18:14;;;;;;;1.95;1.75;;;;;;;;;;5134609;27;20662;-65
2023/08/02 11:20:40;;;;;;;1.90;1.70;;;;;;;;;;5135279;27;20135;-66
2023/08/02 11:23:25;;;;;;;3.40;1.85;;;;;;;;;;5134492;27;20042;-65
2023/08/02 11:25:52;;;;;;;2.17;1.58;;;;;;;;;;5131427;27;20118;-65
2023/08/02 11:28:19;;;;;;;5.00;1.73;;;;;;;;;;5134904;27;20372;-65
2023/08/02 11:30:49;;;;;;;1.75;1.65;;;;;;;;;;5134787;27;20051;-65
2023/08/02 11:33:15;;;;;;;1.77;1.60;;;;;;;;;;5134079;27;20035;-65
2023/08/02 11:35:41;;;;;;;3.55;1.88;;;;;;;;;;5134317;27;20517;-66
2023/08/02 11:38:11;;;;;;;2.60;1.50;;;;;;;;;;5128190;27;20386;-66
2023/08/02 11:40:37;;;;;;;2.25;1.77;;;;;;;;;;5113647;28;20035;-65
2023/08/02 11:43:04;;;;;;;1.80;1.70;;;;;;;;;;5128345;27;20042;-67
2023/08/02 11:45:34;;;;;;;1.63;1.52;;;;;;;;;;5132781;27;20043;-65
2023/08/02 11:48:01;;;;;;;2.42;1.70;;;;;;;;;;5134254;27;20513;-66
2023/08/02 11:50:28;;;;;;;2.97;2.13;;;;;;;;;;5134634;27;20051;-66
2023/08/02 11:53:07;;;;;;;2.35;2.10;;;;;;;;;;5134538;27;20504;-66
2023/08/02 11:55:36;;;;;;;2.90;2.15;;;;;;;;;;5133676;27;20039;-65
2023/08/02 11:58:04;;;;;;;2.40;2.20;;;;;;;;;;5134210;27;20580;-65
2023/08/02 12:00:31;;;;;;;4.43;2.75;;;;;;;;;;5134464;27;20096;-65
2023/08/02 12:03:07;;;;;;;2.65;2.45;;;;;;;;;;5134087;27;20043;-65
2023/08/02 12:05:33;;;;;;;3.15;2.80;;;;;;;;;;5133750;27;20055;-65
2023/08/02 12:08:10;;;;;;;4.22;3.30;;;;;;;;;;5125930;27;20054;-65
2023/08/02 12:10:39;;;;;;;3.60;3.30;;;;;;;;;;5123338;27;20078;-66
2023/08/02 12:13:16;;;;;;;3.97;3.60;;;;;;;;;;5133661;27;20051;-65
2023/08/02 12:16:01;;;;;;;4.75;4.20;;;;;;;;;;5133595;27;20489;-65
2023/08/02 12:18:27;;;;;;;4.90;4.40;;;;;;;;;;5133640;27;20043;-65
2023/08/02 12:20:54;;;;;;;5.00;4.55;;;;;;;;;;5134072;27;20084;-66
2023/08/02 12:23:33;;;;;;;5.85;5.05;;;;;;;;;;5133976;27;20089;-65
2023/08/02 12:25:59;;;;;;;6.53;5.20;;;;;;;;;;5128344;27;20092;-67
2023/08/02 12:28:25;;;;;;;5.13;4.63;;;;;;;;;;5133817;27;20043;-66
2023/08/02 12:31:01;;;;;;;5.38;4.88;;;;;;;;;;5133574;27;20546;-66
2023/08/02 12:33:27;;;;;;;5.22;4.72;;;;;;;;;;5133282;27;20815;-66
2023/08/02 12:35:53;;;;;;;7.55;6.78;;;;;;;;;;5133439;27;20400;-67
2023/08/02 12:38:19;;;;;;;5.90;5.30;;;;;;;;;;5133401;27;20434;-67
2023/08/02 12:40:46;;;;;;;6.22;5.53;;;;;;;;;;5134088;27;20043;-66
2023/08/02 12:43:12;;;;;;;5.95;5.40;;;;;;;;;;5133521;27;20043;-67
2023/08/02 12:45:38;;;;;;;5.55;4.97;;;;;;;;;;5133104;27;20528;-66
2023/08/02 12:48:04;;;;;;;6.95;5.35;;;;;;;;;;5133680;27;20043;-66
2023/08/02 12:50:30;;;;;;;8.43;5.78;;;;;;;;;;5133796;27;20081;-65
2023/08/02 12:52:56;;;;;;;5.90;5.40;;;;;;;;;;5132830;27;20148;-66
2023/08/02 12:55:22;;;;;;;6.80;5.28;;;;;;;;;;5133043;27;20035;-64
2023/08/02 12:57:48;;;;;;;6.30;5.80;;;;;;;;;;5133469;27;20046;-64
2023/08/02 13:00:14;;;;;;;5.60;5.10;;;;;;;;;;5133439;27;20043;-64
2023/08/02 13:02:40;;;;;;;4.82;4.30;;;;;;;;;;5132619;27;20083;-64
2023/08/02 13:05:07;;;;;;;4.72;4.28;;;;;;;;;;5133443;27;20159;-64
2023/08/02 13:07:33;;;;;;;5.00;4.40;;;;;;;;;;5128637;27;20048;-64
2023/08/02 13:09:59;;;;;;;5.43;4.93;;;;;;;;;;5112321;28;20035;-64
2023/08/02 13:12:26;;;;;;;5.32;4.28;;;;;;;;;;5112144;28;20084;-64
2023/08/02 13:14:52;;;;;;;7.75;5.35;;;;;;;;;;5112097;28;20130;-64
2023/08/02 13:17:19;;;;;;;5.40;5.00;;;;;;;;;;5112102;28;20093;-64
2023/08/02 13:19:46;;;;;;;5.10;4.60;;;;;;;;;;5112205;28;20035;-64
2023/08/02 13:22:12;;;;;;;5.05;4.57;;;;;;;;;;5112138;28;20079;-64
2023/08/02 13:24:38;;;;;;;5.22;4.68;;;;;;;;;;5112203;28;20039;-64
2023/08/02 13:27:04;;;;;;;4.65;4.10;;;;;;;;;;5112209;28;20450;-64
2023/08/02 13:29:30;;;;;;;4.75;4.35;;;;;;;;;;5112108;28;20043;-64
2023/08/02 13:31:56;;;;;;;5.35;4.82;;;;;;;;;;5110313;28;20454;-64
2023/08/02 13:34:22;;;;;;;8.50;4.95;;;;;;;;;;5110498;28;20074;-64
2023/08/02 13:36:49;;;;;;;9.10;5.38;;;;;;;;;;5112333;28;20044;-64
2023/08/02 13:39:15;;;;;;;8.23;6.20;;;;;;;;;;5110098;28;20118;-64
2023/08/02 13:41:41;;;;;;;14.30;8.65;;;;;;;;;;5111530;28;20546;-64
2023/08/02 13:44:07;;;;;;;6.93;6.25;;;;;;;;;;5110255;28;20039;-64
2023/08/02 13:46:33;;;;;;;4.43;2.63;;;;;;;;;;5109648;28;20043;-64
2023/08/02 13:49:00;;;;;;;4.15;2.20;;;;;;;;;;5110013;28;20043;-64
2023/08/02 13:51:26;;;;;;;3.65;2.30;;;;;;;;;;5109894;28;20040;-64
2023/08/02 13:53:52;;;;;;;5.07;2.80;;;;;;;;;;5109368;28;20116;-64
2023/08/02 13:56:19;;;;;;;4.15;3.25;;;;;;;;;;5109841;28;20115;-64
2023/08/02 13:58:45;;;;;;;4.05;2.10;;;;;;;;;;5109878;28;20080;-64
2023/08/02 14:01:11;;;;;;;2.83;2.13;;;;;;;;;;5109423;28;20465;-64
2023/08/02 14:03:37;;;;;;;3.35;2.28;;;;;;;;;;5109385;28;20161;-64
2023/08/02 14:06:03;;;;;;;4.32;1.60;;;;;;;;;;5109618;28;20522;-64
2023/08/02 14:08:29;;;;;;;6.15;1.80;;;;;;;;;;5109331;28;20504;-64
2023/08/02 14:10:55;;;;;;;4.78;1.60;;;;;;;;;;5109713;28;20179;-64
2023/08/02 14:13:21;;;;;;;4.00;1.45;;;;;;;;;;5108887;28;20048;-64
2023/08/02 14:15:48;;;;;;;5.72;1.40;;;;;;;;;;5109228;28;20156;-64
2023/08/02 14:18:14;;;;;;;4.80;1.40;;;;;;;;;;5109605;28;20529;-64
2023/08/02 14:20:40;;;;;;;5.60;1.50;;;;;;;;;;5109434;28;20105;-64
2023/08/02 14:23:06;;;;;;;4.45;1.70;;;;;;;;;;5109254;28;20070;-64
2023/08/02 14:25:32;;;;;;;4.47;1.08;;;;;;;;;;5109487;28;20027;-64
2023/08/02 14:27:58;;;;;;;5.88;1.10;;;;;;;;;;5109387;28;20120;-64
2023/08/02 14:30:24;;;;;;;2.90;1.23;;;;;;;;;;5109073;28;20039;-64
2023/08/02 14:32:50;;;;;;;4.97;0.80;;;;;;;;;;5107561;28;20420;-64
2023/08/02 14:35:16;;;;;;;5.07;0.95;;;;;;;;;;5109604;28;20042;-64